Time;durP1;ratioP1;P1;durP2;ratioP2;P2;SDS_P1;SDS_P2;PMS_P1;PMS_P2;Temp;Humidity;BMP_temperature;BMP_pressure;BME280_temperature;BME280_humidity;BME280_pressure;Samples;Min_cycle;Max_cycle;Signal;HPM_P1;HPM_P2
2021/06/16 00:01:33;;;;;;;9.37;3.40;;;16.10;99.60;;;;;;4432623;32;20228;-60
2021/06/16 00:04:00;;;;;;;4.73;2.80;;;16.00;99.60;;;;;;4422123;32;20151;-60
2021/06/16 00:06:27;;;;;;;9.53;3.77;;;16.10;99.40;;;;;;4427781;32;20170;-61
2021/06/16 00:08:55;;;;;;;11.77;4.10;;;16.00;99.80;;;;;;4436699;32;20449;-60
2021/06/16 00:11:22;;;;;;;10.33;3.60;;;16.00;99.80;;;;;;4434090;32;20613;-60
2021/06/16 00:13:50;;;;;;;10.77;3.40;;;16.00;99.90;;;;;;4434681;32;20182;-59
2021/06/16 00:16:18;;;;;;;7.00;3.67;;;15.90;99.90;;;;;;4425585;32;20550;-59
2021/06/16 00:18:46;;;;;;;11.17;4.10;;;15.90;99.90;;;;;;4426527;32;20167;-59
2021/06/16 00:21:13;;;;;;;11.50;3.43;;;15.90;99.90;;;;;;4421091;32;20148;-61
2021/06/16 00:23:40;;;;;;;9.67;3.70;;;15.90;99.90;;;;;;4424129;32;20197;-59
2021/06/16 00:26:07;;;;;;;12.63;3.50;;;15.80;99.90;;;;;;4422959;32;20166;-59
2021/06/16 00:28:34;;;;;;;8.13;3.90;;;15.80;99.90;;;;;;4437144;32;20471;-60
2021/06/16 00:31:01;;;;;;;7.40;3.73;;;15.80;99.90;;;;;;4432621;32;20171;-59
2021/06/16 00:33:29;;;;;;;8.97;4.03;;;15.80;99.90;;;;;;4436445;32;20213;-59
2021/06/16 00:35:56;;;;;;;9.00;3.63;;;15.70;99.90;;;;;;4433492;32;20174;-59
2021/06/16 00:38:26;;;;;;;7.57;3.50;;;15.70;99.90;;;;;;4434352;32;20194;-59
2021/06/16 00:40:53;;;;;;;6.23;3.87;;;15.70;99.90;;;;;;4428578;32;20498;-60
2021/06/16 00:43:20;;;;;;;11.23;4.30;;;15.60;99.90;;;;;;4423258;32;20155;-60
2021/06/16 00:45:47;;;;;;;10.03;4.23;;;15.60;99.90;;;;;;4432271;32;20147;-59
2021/06/16 00:48:14;;;;;;;7.40;3.97;;;15.50;99.90;;;;;;4438327;32;20143;-59
2021/06/16 00:50:42;;;;;;;6.00;3.63;;;15.60;99.90;;;;;;4430165;32;20151;-60
2021/06/16 00:53:10;;;;;;;10.57;3.90;;;15.60;99.90;;;;;;4426160;32;20143;-60
2021/06/16 00:55:38;;;;;;;8.97;4.00;;;15.50;99.90;;;;;;4435288;32;20151;-62
2021/06/16 00:58:06;;;;;;;11.17;4.47;;;15.50;99.90;;;;;;4435632;32;20162;-60
2021/06/16 01:00:38;;;;;;;5.97;3.20;;;15.50;99.90;;;;;;4436032;32;20231;-61
2021/06/16 01:03:09;;;;;;;7.70;3.90;;;15.40;99.90;;;;;;4435385;32;20300;-61
2021/06/16 01:05:40;;;;;;;7.70;3.67;;;15.50;99.90;;;;;;4423223;32;20163;-61
2021/06/16 01:08:09;;;;;;;8.97;4.07;;;15.40;99.90;;;;;;4436895;32;20193;-61
2021/06/16 01:10:45;;;;;;;7.77;3.73;;;15.40;99.90;;;;;;4433948;32;20155;-59
2021/06/16 01:13:23;;;;;;;11.20;4.47;;;15.30;99.90;;;;;;4430289;32;20480;-59
2021/06/16 01:15:57;;;;;;;13.17;4.60;;;15.30;99.90;;;;;;4423023;32;20189;-59
2021/06/16 01:18:26;;;;;;;9.67;4.33;;;15.30;99.90;;;;;;4426497;32;20432;-59
2021/06/16 01:20:56;;;;;;;7.07;4.17;;;15.30;99.90;;;;;;4422443;32;20165;-60
2021/06/16 01:23:41;;;;;;;10.97;4.53;;;15.20;99.90;;;;;;4430727;32;20148;-59
2021/06/16 01:26:29;;;;;;;9.07;4.00;;;15.20;99.90;;;;;;4428311;32;20179;-59
2021/06/16 01:29:00;;;;;;;9.97;4.20;;;15.20;99.90;;;;;;4432523;32;20462;-60
2021/06/16 01:31:27;;;;;;;11.70;4.67;;;15.20;99.90;;;;;;4431197;32;20163;-61
2021/06/16 01:33:54;;;;;;;9.73;4.20;;;15.20;99.90;;;;;;4433388;32;20155;-60
2021/06/16 01:36:25;;;;;;;9.07;4.30;;;15.10;99.90;;;;;;4429496;32;20492;-61
2021/06/16 01:38:52;;;;;;;12.47;4.33;;;15.10;99.90;;;;;;4422604;32;20174;-61
2021/06/16 01:41:20;;;;;;;12.40;4.33;;;15.10;99.90;;;;;;4427010;32;20641;-60
2021/06/16 01:43:53;;;;;;;10.73;4.90;;;15.10;99.90;;;;;;4435833;32;20147;-61
2021/06/16 01:46:22;;;;;;;10.07;4.60;;;15.00;99.90;;;;;;4430543;32;20171;-60
2021/06/16 01:48:52;;;;;;;7.60;4.13;;;15.00;99.90;;;;;;4434790;32;20208;-61
2021/06/16 01:51:20;;;;;;;10.37;4.13;;;15.00;99.90;;;;;;4433997;32;20209;-60
2021/06/16 01:53:49;;;;;;;8.43;4.47;;;15.00;99.90;;;;;;4433894;32;20163;-59
2021/06/16 01:56:18;;;;;;;8.03;4.30;;;15.00;99.90;;;;;;4425222;32;20165;-59
2021/06/16 01:58:46;;;;;;;8.53;4.17;;;15.00;99.90;;;;;;4423521;32;20163;-60
2021/06/16 02:01:16;;;;;;;10.47;4.90;;;15.00;99.90;;;;;;4428116;32;20167;-59
2021/06/16 02:03:43;;;;;;;7.70;4.23;;;14.90;99.90;;;;;;4438533;32;20163;-60
2021/06/16 02:06:10;;;;;;;9.60;4.43;;;14.90;99.90;;;;;;4434360;32;20185;-61
2021/06/16 02:08:39;;;;;;;7.40;4.97;;;14.90;99.90;;;;;;4436348;32;20154;-61
2021/06/16 02:11:06;;;;;;;9.10;4.10;;;14.80;99.90;;;;;;4433757;32;20177;-61
2021/06/16 02:13:39;;;;;;;9.60;4.10;;;14.80;99.90;;;;;;4421773;32;20516;-61
2021/06/16 02:16:08;;;;;;;8.67;4.67;;;14.80;99.90;;;;;;4423206;32;20167;-61
2021/06/16 02:18:41;;;;;;;8.53;4.17;;;14.80;99.90;;;;;;4421693;32;20152;-60
2021/06/16 02:21:08;;;;;;;12.63;5.47;;;14.80;99.90;;;;;;4425580;32;20166;-60
2021/06/16 02:23:36;;;;;;;8.53;4.27;;;14.70;99.90;;;;;;4429922;32;20572;-61
2021/06/16 02:26:03;;;;;;;9.63;4.53;;;14.70;99.90;;;;;;4430861;32;20599;-60
2021/06/16 02:28:30;;;;;;;9.77;4.27;;;14.70;99.90;;;;;;4422950;32;20693;-59
2021/06/16 02:30:57;;;;;;;9.73;4.23;;;14.70;99.90;;;;;;4425906;32;20171;-60
2021/06/16 02:33:24;;;;;;;7.07;3.93;;;14.70;99.90;;;;;;4436111;32;20202;-59
2021/06/16 02:35:53;;;;;;;8.33;4.93;;;14.70;99.90;;;;;;4432104;32;20527;-60
2021/06/16 02:38:23;;;;;;;7.77;3.83;;;14.70;99.90;;;;;;4425431;32;20437;-60
2021/06/16 02:40:51;;;;;;;8.20;4.40;;;14.60;99.90;;;;;;4436037;32;20174;-61
2021/06/16 02:43:21;;;;;;;11.23;4.90;;;14.60;99.90;;;;;;4436298;32;20233;-61
2021/06/16 02:45:49;;;;;;;10.47;5.37;;;14.60;99.90;;;;;;4434686;32;20154;-60
2021/06/16 02:48:18;;;;;;;7.70;4.50;;;14.50;99.90;;;;;;4421772;32;20625;-61
2021/06/16 02:50:47;;;;;;;7.87;4.40;;;14.60;99.90;;;;;;4421965;32;20164;-60
2021/06/16 02:53:18;;;;;;;6.43;4.83;;;14.60;99.90;;;;;;4425809;32;20155;-60
2021/06/16 02:55:48;;;;;;;10.27;4.93;;;14.50;99.90;;;;;;4429880;32;20213;-60
2021/06/16 02:58:17;;;;;;;13.30;5.30;;;14.50;99.90;;;;;;4430981;32;20167;-61
2021/06/16 03:00:45;;;;;;;9.97;4.80;;;14.50;99.90;;;;;;4421747;32;20167;-61
2021/06/16 03:03:13;;;;;;;8.43;4.90;;;14.50;99.90;;;;;;4423336;32;20151;-58
2021/06/16 03:05:41;;;;;;;10.77;4.87;;;14.50;99.90;;;;;;4436799;32;20226;-62
2021/06/16 03:08:09;;;;;;;7.97;4.80;;;14.60;99.90;;;;;;4423946;32;20174;-61
2021/06/16 03:10:39;;;;;;;12.33;5.57;;;14.50;99.90;;;;;;4436263;32;20171;-60
2021/06/16 03:13:06;;;;;;;8.50;4.77;;;14.50;99.90;;;;;;4434233;32;20226;-59
2021/06/16 03:15:34;;;;;;;8.47;4.60;;;14.50;99.90;;;;;;4427420;32;20169;-59
2021/06/16 03:18:02;;;;;;;8.83;4.70;;;14.50;99.90;;;;;;4433787;32;20587;-59
2021/06/16 03:20:31;;;;;;;7.57;4.30;;;14.50;99.90;;;;;;4423585;32;20205;-61
2021/06/16 03:23:00;;;;;;;8.10;5.20;;;14.40;99.90;;;;;;4425647;32;20583;-61
2021/06/16 03:25:29;;;;;;;9.87;4.53;;;14.40;99.90;;;;;;4427724;32;20178;-60
2021/06/16 03:27:59;;;;;;;10.30;4.47;;;14.40;99.90;;;;;;4433577;32;20282;-61
2021/06/16 03:30:26;;;;;;;8.77;5.30;;;14.40;99.90;;;;;;4420507;32;20151;-61
2021/06/16 03:32:54;;;;;;;10.50;4.43;;;14.50;99.90;;;;;;4425000;32;20261;-61
2021/06/16 03:35:21;;;;;;;11.10;4.47;;;14.50;99.90;;;;;;4431727;32;20241;-61
2021/06/16 03:37:50;;;;;;;9.23;5.30;;;14.50;99.90;;;;;;4420128;32;20151;-60
2021/06/16 03:40:19;;;;;;;10.80;5.07;;;14.50;99.90;;;;;;4435531;32;20151;-61
2021/06/16 03:42:49;;;;;;;8.47;3.90;;;14.50;99.90;;;;;;4435789;32;20143;-61
2021/06/16 03:45:19;;;;;;;10.07;4.97;;;14.50;99.90;;;;;;4434306;32;20146;-61
2021/06/16 03:47:47;;;;;;;8.67;4.50;;;14.50;99.90;;;;;;4426746;32;20155;-62
2021/06/16 03:50:19;;;;;;;13.33;5.73;;;14.50;99.90;;;;;;4423653;32;20171;-61
2021/06/16 03:52:46;;;;;;;10.43;4.50;;;14.50;99.90;;;;;;4434204;32;20641;-61
2021/06/16 03:55:13;;;;;;;8.53;4.80;;;14.50;99.90;;;;;;4426104;32;20642;-60
2021/06/16 03:57:41;;;;;;;7.07;4.80;;;14.60;99.90;;;;;;4427283;32;20181;-59
2021/06/16 04:00:09;;;;;;;8.87;4.27;;;14.60;99.90;;;;;;4425938;32;20580;-60
2021/06/16 04:02:39;;;;;;;12.47;5.37;;;14.60;99.90;;;;;;4427917;32;20266;-61
2021/06/16 04:05:09;;;;;;;15.03;4.90;;;14.70;99.90;;;;;;4420547;32;20452;-61
2021/06/16 04:07:36;;;;;;;7.47;4.70;;;14.70;99.90;;;;;;4420958;32;20215;-61
2021/06/16 04:10:05;;;;;;;9.07;5.17;;;14.80;99.90;;;;;;4432824;32;20183;-60
2021/06/16 04:12:32;;;;;;;13.43;5.10;;;14.90;99.90;;;;;;4424556;32;20170;-61
2021/06/16 04:15:00;;;;;;;8.83;4.30;;;14.90;99.90;;;;;;4434261;32;20186;-60
2021/06/16 04:17:26;;;;;;;6.63;4.20;;;14.90;99.90;;;;;;4438509;32;20520;-61
2021/06/16 04:19:55;;;;;;;8.90;5.03;;;15.00;99.90;;;;;;4438586;32;20147;-61
2021/06/16 04:22:22;;;;;;;8.23;4.30;;;15.00;99.90;;;;;;4425085;32;20152;-61
2021/06/16 04:24:49;;;;;;;6.00;3.97;;;15.10;99.90;;;;;;4425925;32;20217;-61
2021/06/16 04:27:16;;;;;;;8.57;4.57;;;15.20;99.90;;;;;;4428185;32;20235;-61
2021/06/16 04:29:46;;;;;;;10.03;4.50;;;15.30;99.90;;;;;;4423317;32;20143;-59
2021/06/16 04:32:13;;;;;;;9.40;4.60;;;15.30;99.90;;;;;;4422787;32;20215;-61
2021/06/16 04:34:40;;;;;;;9.93;4.53;;;15.40;99.90;;;;;;4423180;32;20219;-60
2021/06/16 04:37:09;;;;;;;8.13;4.37;;;15.50;99.90;;;;;;4432190;32;20181;-61
2021/06/16 04:39:36;;;;;;;8.83;4.00;;;15.50;99.90;;;;;;4423108;32;20147;-59
2021/06/16 04:42:04;;;;;;;8.10;4.37;;;15.60;99.90;;;;;;4434352;32;20163;-59
2021/06/16 04:44:31;;;;;;;6.87;3.83;;;15.80;99.90;;;;;;4424047;32;20178;-59
2021/06/16 04:46:59;;;;;;;7.83;4.50;;;15.90;99.90;;;;;;4432328;32;20167;-61
2021/06/16 04:49:28;;;;;;;8.63;4.63;;;15.90;99.90;;;;;;4438101;32;20170;-60
2021/06/16 04:51:55;;;;;;;6.60;3.83;;;16.00;99.90;;;;;;4428501;32;20166;-59
2021/06/16 04:54:23;;;;;;;10.83;4.70;;;16.10;99.90;;;;;;4434407;32;20166;-60
2021/06/16 04:56:50;;;;;;;7.33;4.67;;;16.20;99.90;;;;;;4435252;32;20237;-60
2021/06/16 04:59:17;;;;;;;8.97;4.90;;;16.30;99.90;;;;;;4434183;32;20171;-60
2021/06/16 05:01:44;;;;;;;10.63;4.97;;;16.40;99.90;;;;;;4424909;32;20179;-60
2021/06/16 05:04:10;;;;;;;9.53;4.63;;;16.50;99.90;;;;;;4423151;32;20202;-60
2021/06/16 05:06:37;;;;;;;11.10;5.13;;;16.50;99.90;;;;;;4430415;32;20151;-60
2021/06/16 05:09:05;;;;;;;7.30;4.13;;;16.60;99.90;;;;;;4428109;32;20155;-59
2021/06/16 05:11:33;;;;;;;9.20;4.50;;;16.70;99.90;;;;;;4430004;32;20152;-60
2021/06/16 05:14:01;;;;;;;5.87;4.10;;;16.80;99.90;;;;;;4428742;32;20626;-59
2021/06/16 05:16:28;;;;;;;10.83;4.43;;;16.90;99.90;;;;;;4429681;32;20193;-59
2021/06/16 05:18:56;;;;;;;9.73;4.37;;;17.00;99.00;;;;;;4425516;32;20159;-60
2021/06/16 05:21:23;;;;;;;10.13;4.40;;;17.10;99.50;;;;;;4426752;32;20159;-59
2021/06/16 05:23:50;;;;;;;9.57;4.20;;;17.30;99.40;;;;;;4428021;32;20203;-60
2021/06/16 05:26:17;;;;;;;9.23;4.60;;;17.40;98.80;;;;;;4432823;32;20151;-59
2021/06/16 05:28:46;;;;;;;11.13;4.60;;;17.60;98.60;;;;;;4423701;32;20218;-59
2021/06/16 05:31:13;;;;;;;8.00;3.90;;;17.80;98.60;;;;;;4425312;32;20155;-59
2021/06/16 05:33:40;;;;;;;11.23;4.93;;;18.00;98.10;;;;;;4426980;32;20154;-58
2021/06/16 05:36:10;;;;;;;9.67;4.77;;;18.20;97.40;;;;;;4427903;32;20219;-59
2021/06/16 05:38:37;;;;;;;11.03;4.20;;;18.40;97.50;;;;;;4427017;32;20155;-59
2021/06/16 05:41:05;;;;;;;7.07;3.70;;;18.70;96.90;;;;;;4429261;32;20166;-59
2021/06/16 05:43:32;;;;;;;8.47;3.40;;;19.80;96.40;;;;;;4427148;32;20261;-59
2021/06/16 05:46:01;;;;;;;8.27;3.67;;;22.20;92.70;;;;;;4426653;32;20777;-60
2021/06/16 05:48:28;;;;;;;7.63;3.07;;;25.20;85.90;;;;;;4425614;32;20215;-61
2021/06/16 05:50:55;;;;;;;8.47;3.50;;;26.80;80.10;;;;;;4429201;32;20188;-60
2021/06/16 05:53:24;;;;;;;7.90;3.00;;;26.70;73.80;;;;;;4427384;32;20211;-61
2021/06/16 05:55:51;;;;;;;6.13;2.97;;;25.20;76.20;;;;;;4426764;32;20159;-61
2021/06/16 05:58:18;;;;;;;6.20;3.27;;;23.90;80.00;;;;;;4428159;32;20159;-61
2021/06/16 06:00:48;;;;;;;6.33;3.67;;;22.90;83.50;;;;;;4430208;32;20163;-61
2021/06/16 06:03:20;;;;;;;6.30;2.93;;;22.10;86.20;;;;;;4425065;32;20147;-60
2021/06/16 06:05:46;;;;;;;7.97;3.07;;;21.60;89.40;;;;;;4425319;32;20327;-60
2021/06/16 06:08:13;;;;;;;5.40;3.57;;;21.20;90.30;;;;;;4425311;32;20222;-60
2021/06/16 06:10:40;;;;;;;5.90;3.30;;;20.90;90.60;;;;;;4422978;32;20203;-60
2021/06/16 06:13:09;;;;;;;8.03;3.33;;;20.70;91.40;;;;;;4426307;32;20155;-61
2021/06/16 06:15:36;;;;;;;7.03;3.00;;;20.60;91.20;;;;;;4425873;32;20163;-60
2021/06/16 06:18:03;;;;;;;6.53;2.93;;;20.60;91.50;;;;;;4422337;32;20163;-60
2021/06/16 06:20:31;;;;;;;8.87;2.97;;;20.60;91.50;;;;;;4424999;32;20201;-60
2021/06/16 06:23:00;;;;;;;7.97;2.60;;;20.60;91.60;;;;;;4427814;32;20494;-60
2021/06/16 06:25:27;;;;;;;9.50;2.80;;;20.70;91.30;;;;;;4427213;32;20151;-60
2021/06/16 06:27:53;;;;;;;5.97;2.77;;;20.70;91.50;;;;;;4429339;32;20207;-59
2021/06/16 06:30:20;;;;;;;7.90;2.50;;;20.70;91.60;;;;;;4422700;32;20186;-60
2021/06/16 06:32:47;;;;;;;4.90;2.77;;;20.70;91.70;;;;;;4422702;32;20146;-60
2021/06/16 06:35:14;;;;;;;6.40;2.77;;;20.80;91.90;;;;;;4431689;32;20554;-61
2021/06/16 06:37:43;;;;;;;7.37;2.77;;;20.90;91.40;;;;;;4426360;32;20147;-60
2021/06/16 06:40:10;;;;;;;5.93;2.47;;;21.00;91.60;;;;;;4432519;32;20170;-60
2021/06/16 06:42:40;;;;;;;7.13;2.30;;;21.10;91.40;;;;;;4422695;32;20196;-60
2021/06/16 06:45:08;;;;;;;6.63;2.43;;;21.20;91.20;;;;;;4420714;32;20154;-60
2021/06/16 06:47:35;;;;;;;8.73;2.47;;;21.30;90.80;;;;;;4422348;32;20144;-59
2021/06/16 06:50:02;;;;;;;10.63;2.57;;;21.40;90.80;;;;;;4423450;32;20170;-60
2021/06/16 06:52:28;;;;;;;7.73;2.67;;;21.50;91.00;;;;;;4423955;32;20155;-60
2021/06/16 06:54:58;;;;;;;8.70;2.30;;;21.50;90.90;;;;;;4430589;32;20189;-60
2021/06/16 06:57:24;;;;;;;7.57;2.10;;;21.70;90.50;;;;;;4422877;32;20143;-60
2021/06/16 06:59:55;;;;;;;4.13;1.90;;;21.80;90.50;;;;;;4428223;32;20178;-61
2021/06/16 07:02:22;;;;;;;7.83;2.43;;;22.00;89.20;;;;;;4427454;32;20165;-62
2021/06/16 07:04:49;;;;;;;6.20;2.07;;;22.20;90.00;;;;;;4426061;32;20158;-62
2021/06/16 07:07:18;;;;;;;6.83;2.20;;;22.30;88.20;;;;;;4427597;32;20162;-63
2021/06/16 07:09:46;;;;;;;7.00;2.30;;;22.40;88.40;;;;;;4427684;32;20147;-60
2021/06/16 07:12:15;;;;;;;6.93;2.20;;;22.50;88.30;;;;;;4427047;32;20222;-60
2021/06/16 07:14:42;;;;;;;5.10;2.00;;;22.60;86.10;;;;;;4425861;32;20170;-62
2021/06/16 07:17:11;;;;;;;7.13;2.47;;;22.60;85.00;;;;;;4421239;32;20223;-60
2021/06/16 07:19:38;;;;;;;4.27;2.17;;;22.80;85.40;;;;;;4420974;32;20179;-60
2021/06/16 07:22:17;;;;;;;8.83;2.63;;;23.00;85.20;;;;;;4428801;32;20170;-60
2021/06/16 07:24:47;;;;;;;4.97;2.40;;;23.10;84.40;;;;;;4421020;32;20151;-61
2021/06/16 07:27:20;;;;;;;7.10;2.53;;;23.10;83.90;;;;;;4428770;32;20166;-60
2021/06/16 07:29:47;;;;;;;4.20;2.13;;;23.20;84.50;;;;;;4425133;32;20178;-61
2021/06/16 07:32:17;;;;;;;3.10;1.97;;;23.20;83.20;;;;;;4421636;32;20152;-61
2021/06/16 07:34:44;;;;;;;4.53;2.77;;;23.30;83.00;;;;;;4420778;32;20161;-60
2021/06/16 07:37:11;;;;;;;5.83;2.17;;;24.00;83.30;;;;;;4425050;32;20166;-61
2021/06/16 07:39:41;;;;;;;6.15;2.35;;;24.50;82.40;;;;;;4426410;32;20147;-61
2021/06/16 07:42:08;;;;;;;5.17;2.50;;;24.60;80.60;;;;;;4431510;32;20158;-61
2021/06/16 07:44:36;;;;;;;9.23;2.67;;;24.90;78.90;;;;;;4431012;32;20146;-60
2021/06/16 07:47:06;;;;;;;3.78;1.90;;;25.50;78.40;;;;;;4429928;32;20203;-59
2021/06/16 07:49:33;;;;;;;3.42;2.20;;;26.30;76.40;;;;;;4427788;32;20155;-62
2021/06/16 07:52:05;;;;;;;4.75;2.40;;;26.60;74.10;;;;;;4434342;32;20215;-60
2021/06/16 07:54:37;;;;;;;4.15;2.30;;;27.50;71.50;;;;;;4428107;32;20155;-60
2021/06/16 07:57:10;;;;;;;3.20;2.40;;;32.40;64.00;;;;;;4440975;32;20155;-60
2021/06/16 07:59:38;;;;;;;6.53;2.25;;;34.60;55.40;;;;;;4451331;32;20173;-59
2021/06/16 08:02:05;;;;;;;4.22;1.92;;;34.10;54.30;;;;;;4440612;32;20175;-60
2021/06/16 08:04:36;;;;;;;4.50;1.85;;;36.50;52.20;;;;;;4427025;32;20173;-61
2021/06/16 08:07:04;;;;;;;3.83;1.92;;;42.70;43.60;;;;;;4429221;32;20220;-60
2021/06/16 08:09:31;;;;;;;4.30;1.87;;;47.30;36.50;;;;;;4438943;32;20251;-60
2021/06/16 08:11:58;;;;;;;2.58;1.77;;;50.30;33.20;;;;;;4434284;32;20135;-63
2021/06/16 08:14:25;;;;;;;4.00;2.10;;;52.00;32.00;;;;;;4429262;32;20204;-62
2021/06/16 08:16:53;;;;;;;2.97;1.95;;;53.70;29.50;;;;;;4429180;32;20166;-60
2021/06/16 08:19:20;;;;;;;4.00;1.87;;;54.50;28.70;;;;;;4435841;32;20155;-61
2021/06/16 08:21:47;;;;;;;2.95;1.75;;;54.70;28.60;;;;;;4443307;32;20452;-61
2021/06/16 08:24:14;;;;;;;6.10;1.80;;;54.90;28.20;;;;;;4443687;32;20173;-60
2021/06/16 08:26:41;;;;;;;3.70;1.80;;;55.20;28.20;;;;;;4432915;32;20211;-60
2021/06/16 08:29:07;;;;;;;4.20;1.60;;;55.40;27.80;;;;;;4428496;32;20156;-60
2021/06/16 08:31:34;;;;;;;4.55;1.62;;;54.80;27.60;;;;;;4435715;32;20563;-62
2021/06/16 08:34:03;;;;;;;6.47;1.80;;;54.70;27.60;;;;;;4432118;32;20190;-63
2021/06/16 08:36:30;;;;;;;8.20;2.40;;;55.60;27.80;;;;;;4425704;32;20178;-58
2021/06/16 08:38:56;;;;;;;4.78;1.90;;;55.80;28.00;;;;;;4423023;32;20147;-60
2021/06/16 08:41:25;;;;;;;5.05;2.10;;;56.50;27.20;;;;;;4426334;32;20796;-60
2021/06/16 08:43:52;;;;;;;2.20;1.60;;;56.20;27.30;;;;;;4429282;32;20231;-60
2021/06/16 08:46:20;;;;;;;5.62;2.25;;;55.70;27.10;;;;;;4426326;32;20468;-59
2021/06/16 08:48:47;;;;;;;3.75;2.40;;;56.00;27.20;;;;;;4425601;32;20202;-61
2021/06/16 08:51:16;;;;;;;3.17;2.05;;;56.30;27.00;;;;;;4426747;32;20211;-59
2021/06/16 08:53:44;;;;;;;4.90;1.95;;;56.70;26.80;;;;;;4438230;32;20589;-60
2021/06/16 08:56:12;;;;;;;5.15;1.98;;;56.40;27.10;;;;;;4434563;32;20194;-61
2021/06/16 08:58:40;;;;;;;3.95;1.87;;;56.80;26.90;;;;;;4427025;32;20151;-59
2021/06/16 09:01:08;;;;;;;5.70;2.28;;;56.90;26.70;;;;;;4433853;32;20191;-61
2021/06/16 09:03:36;;;;;;;3.53;1.75;;;57.20;26.70;;;;;;4425251;32;20452;-60
2021/06/16 09:06:07;;;;;;;4.68;2.45;;;56.80;27.10;;;;;;4422770;32;20154;-60
2021/06/16 09:08:51;;;;;;;3.92;1.90;;;57.20;26.80;;;;;;4423385;32;20151;-60
2021/06/16 09:11:18;;;;;;;7.05;2.25;;;57.50;26.90;;;;;;4424920;32;20171;-62
2021/06/16 09:13:45;;;;;;;5.95;2.28;;;57.40;26.50;;;;;;4429382;32;20712;-60
2021/06/16 09:16:28;;;;;;;6.05;2.87;;;57.00;27.00;;;;;;4432014;32;20200;-62
2021/06/16 09:18:58;;;;;;;3.15;2.20;;;56.30;26.70;;;;;;4434309;32;20179;-60
2021/06/16 09:21:39;;;;;;;4.60;2.40;;;56.00;27.20;;;;;;4422571;32;20178;-61
2021/06/16 09:24:08;;;;;;;3.78;2.05;;;55.50;26.90;;;;;;4422483;32;20185;-62
2021/06/16 09:26:37;;;;;;;3.42;2.33;;;55.20;26.90;;;;;;4422528;32;20143;-62
2021/06/16 09:29:05;;;;;;;2.53;2.30;;;55.70;26.80;;;;;;4422788;32;20181;-62
2021/06/16 09:31:37;;;;;;;3.37;1.98;;;55.70;26.80;;;;;;4425359;32;20173;-61
2021/06/16 09:34:11;;;;;;;5.18;2.47;;;55.50;26.90;;;;;;4432917;32;20215;-61
2021/06/16 09:36:53;;;;;;;13.55;2.95;;;53.30;27.00;;;;;;4423955;32;20608;-59
2021/06/16 09:39:25;;;;;;;4.47;2.47;;;52.30;28.20;;;;;;4436218;32;20150;-59
2021/06/16 09:42:03;;;;;;;5.97;2.80;;;52.10;27.40;;;;;;4422193;32;20159;-59
2021/06/16 09:44:41;;;;;;;2.62;2.17;;;52.10;28.00;;;;;;4436173;32;20154;-60
2021/06/16 09:47:17;;;;;;;6.72;2.25;;;52.50;27.80;;;;;;4425785;32;20645;-63
2021/06/16 09:49:49;;;;;;;7.82;2.75;;;52.30;27.70;;;;;;4424141;32;20151;-60
2021/06/16 09:52:33;;;;;;;4.10;2.65;;;51.70;28.40;;;;;;4431882;32;20274;-60
2021/06/16 09:55:03;;;;;;;5.07;2.67;;;50.10;29.30;;;;;;4430600;32;20602;-60
2021/06/16 09:57:30;;;;;;;4.45;2.97;;;47.40;30.00;;;;;;4432708;32;20451;-59
2021/06/16 10:00:03;;;;;;;13.95;4.25;;;43.90;31.80;;;;;;4429962;32;20155;-59
2021/06/16 10:02:31;;;;;;;7.95;3.40;;;40.90;33.50;;;;;;4427735;32;20171;-58
2021/06/16 10:04:59;;;;;;;6.53;3.30;;;38.80;34.70;;;;;;4425737;32;20287;-59
2021/06/16 10:07:27;;;;;;;7.30;3.37;;;36.70;37.30;;;;;;4422748;32;20201;-59
2021/06/16 10:09:58;;;;;;;6.25;2.97;;;35.10;38.40;;;;;;4422688;32;20156;-59
2021/06/16 10:12:33;;;;;;;5.78;2.83;;;34.10;39.80;;;;;;4424413;32;20146;-60
2021/06/16 10:15:01;;;;;;;4.90;2.92;;;33.70;40.60;;;;;;4432959;32;20150;-58
2021/06/16 10:17:29;;;;;;;3.22;2.90;;;33.40;40.10;;;;;;4427447;32;20144;-59
2021/06/16 10:19:56;;;;;;;4.30;2.40;;;32.80;41.10;;;;;;4430088;32;20588;-61
2021/06/16 10:22:24;;;;;;;3.67;2.97;;;32.40;42.50;;;;;;4424970;32;20200;-60
2021/06/16 10:24:51;;;;;;;4.95;2.75;;;32.20;42.30;;;;;;4425261;32;20226;-60
2021/06/16 10:27:31;;;;;;;6.20;2.87;;;32.00;42.60;;;;;;4429344;32;20214;-60
2021/06/16 10:30:09;;;;;;;3.60;3.25;;;31.70;43.20;;;;;;4438005;32;20159;-61
2021/06/16 10:32:40;;;;;;;3.90;2.67;;;31.60;44.30;;;;;;4425279;32;20209;-63
2021/06/16 10:35:08;;;;;;;6.03;3.03;;;31.40;44.30;;;;;;4435771;32;20147;-60
2021/06/16 10:37:37;;;;;;;7.32;2.80;;;31.50;43.90;;;;;;4420760;32;20159;-60
2021/06/16 10:40:44;;;;;;;3.85;2.90;;;31.40;43.60;;;;;;4423773;32;20224;-60
2021/06/16 10:43:34;;;;;;;3.70;2.45;;;31.30;44.80;;;;;;4426349;32;20195;-60
2021/06/16 10:46:18;;;;;;;8.15;3.08;;;31.30;44.50;;;;;;4429447;32;20186;-61
2021/06/16 10:49:04;;;;;;;5.60;3.00;;;31.50;43.90;;;;;;4431192;32;20155;-60
2021/06/16 10:51:42;;;;;;;4.28;2.90;;;31.60;44.40;;;;;;4428952;32;20151;-60
2021/06/16 10:54:18;;;;;;;4.75;2.92;;;31.70;44.60;;;;;;4426935;32;20151;-62
2021/06/16 10:56:47;;;;;;;4.43;3.95;;;32.00;44.60;;;;;;4427441;32;20146;-60
2021/06/16 10:59:15;;;;;;;5.30;3.17;;;32.80;43.10;;;;;;4427900;32;20513;-63
2021/06/16 11:01:50;;;;;;;4.25;3.70;;;33.40;42.80;;;;;;4426843;32;20155;-61
2021/06/16 11:04:26;;;;;;;5.80;4.00;;;33.20;42.80;;;;;;4436402;32;20147;-61
2021/06/16 11:06:53;;;;;;;4.97;4.00;;;32.70;43.40;;;;;;4436885;32;20180;-61
2021/06/16 11:09:49;;;;;;;4.45;3.75;;;32.30;43.90;;;;;;4438044;32;20143;-61
2021/06/16 11:12:17;;;;;;;4.70;3.87;;;32.40;45.20;;;;;;4436255;32;20139;-61
2021/06/16 11:14:48;;;;;;;4.35;3.92;;;32.70;44.10;;;;;;4437080;32;20142;-60
2021/06/16 11:17:43;;;;;;;5.47;3.78;;;32.70;43.70;;;;;;4437879;32;20485;-61
2021/06/16 11:20:12;;;;;;;5.65;3.62;;;32.90;43.70;;;;;;4435929;32;20147;-61
2021/06/16 11:22:47;;;;;;;5.57;4.32;;;33.00;43.90;;;;;;4436075;32;20159;-60
2021/06/16 11:25:33;;;;;;;6.45;3.58;;;32.40;44.30;;;;;;4436715;32;20559;-60
2021/06/16 11:28:16;;;;;;;5.68;4.22;;;32.00;45.30;;;;;;4436227;32;20146;-61
2021/06/16 11:30:50;;;;;;;5.97;4.68;;;31.90;46.30;;;;;;4435979;32;20230;-61
2021/06/16 11:33:47;;;;;;;6.62;4.40;;;31.80;46.20;;;;;;4424355;32;114541;-62
2021/06/16 11:36:27;;;;;;;5.87;5.03;;;31.80;46.40;;;;;;4422224;32;20552;-61
2021/06/16 11:38:58;;;;;;;6.28;4.53;;;31.70;45.80;;;;;;4422400;32;20191;-61
2021/06/16 11:41:26;;;;;;;5.57;4.22;;;31.50;46.80;;;;;;4420618;32;20144;-59
2021/06/16 11:43:55;;;;;;;5.87;5.05;;;31.50;47.40;;;;;;4422412;32;20159;-61
2021/06/16 11:46:28;;;;;;;7.85;5.03;;;31.50;47.30;;;;;;4420485;32;20196;-60
2021/06/16 11:49:09;;;;;;;7.85;5.10;;;31.30;47.40;;;;;;4420666;32;20139;-61
2021/06/16 11:51:39;;;;;;;6.57;5.10;;;31.00;48.40;;;;;;4422021;32;20140;-64
2021/06/16 11:54:22;;;;;;;10.77;5.68;;;30.80;48.50;;;;;;4420611;32;20163;-61
2021/06/16 11:56:51;;;;;;;5.53;4.65;;;31.00;48.40;;;;;;4422162;32;20192;-61
2021/06/16 11:59:31;;;;;;;5.45;4.75;;;30.80;48.70;;;;;;4420516;32;20151;-61
2021/06/16 12:02:13;;;;;;;7.72;5.28;;;30.80;48.60;;;;;;4420809;32;20627;-63
2021/06/16 12:04:46;;;;;;;11.07;5.57;;;30.80;48.70;;;;;;4416801;32;20155;-60
2021/06/16 12:07:13;;;;;;;9.60;5.25;;;30.80;48.70;;;;;;4412820;32;20171;-59
2021/06/16 12:09:46;;;;;;;9.73;5.10;;;30.80;49.40;;;;;;4412129;32;20152;-62
2021/06/16 12:12:20;;;;;;;7.60;4.93;;;30.70;48.90;;;;;;4411429;32;20198;-60
2021/06/16 12:14:47;;;;;;;7.15;5.30;;;30.70;49.50;;;;;;4411457;32;20166;-60
2021/06/16 12:17:18;;;;;;;7.15;4.80;;;30.70;49.50;;;;;;4409779;32;20217;-60
2021/06/16 12:19:45;;;;;;;7.43;5.28;;;30.70;49.90;;;;;;4414672;32;20191;-59
2021/06/16 12:22:22;;;;;;;8.60;5.15;;;30.60;49.60;;;;;;4413615;32;20183;-59
2021/06/16 12:25:09;;;;;;;7.22;5.18;;;30.70;50.20;;;;;;4411454;32;20163;-60
2021/06/16 12:27:36;;;;;;;8.40;5.82;;;30.70;50.00;;;;;;4412010;32;20166;-61
2021/06/16 12:30:05;;;;;;;6.78;5.15;;;30.70;49.30;;;;;;4411201;32;20154;-62
2021/06/16 12:32:39;;;;;;;6.55;4.90;;;30.60;50.70;;;;;;4410893;32;20223;-61
2021/06/16 12:35:17;;;;;;;8.73;5.43;;;30.60;50.80;;;;;;4412756;32;20155;-60
2021/06/16 12:37:48;;;;;;;7.78;5.07;;;30.60;50.50;;;;;;4413302;32;20165;-60
2021/06/16 12:40:18;;;;;;;7.62;5.50;;;30.60;51.70;;;;;;4415609;32;20200;-62
2021/06/16 12:42:46;;;;;;;9.05;5.80;;;30.60;51.70;;;;;;4414544;32;20156;-60
2021/06/16 12:45:27;;;;;;;9.02;5.15;;;30.60;51.00;;;;;;4415171;32;20160;-61
2021/06/16 12:47:56;;;;;;;6.50;5.82;;;30.60;51.40;;;;;;4414424;32;20155;-61
2021/06/16 12:50:28;;;;;;;6.28;4.78;;;30.70;50.40;;;;;;4413507;32;20206;-61
2021/06/16 12:52:55;;;;;;;14.10;5.15;;;30.70;50.70;;;;;;4415422;32;20490;-59
2021/06/16 12:55:23;;;;;;;5.40;4.90;;;31.00;51.50;;;;;;4415912;32;20585;-61
2021/06/16 12:57:54;;;;;;;9.35;5.20;;;31.20;50.40;;;;;;4415988;32;20167;-62
2021/06/16 13:00:24;;;;;;;6.97;5.70;;;31.50;50.50;;;;;;4412641;32;20148;-60